createdAt,value
2022-12-09T00:03:49.106Z,3.53
2022-12-09T00:08:52.270Z,3.67
2022-12-09T00:13:57.354Z,3.78
2022-12-09T00:19:00.076Z,3.78
2022-12-09T00:24:05.612Z,3.49
2022-12-09T00:29:08.222Z,3.98
2022-12-09T00:34:13.429Z,4.02
2022-12-09T00:39:15.737Z,3.99
2022-12-09T00:44:18.450Z,3.66
2022-12-09T00:49:20.690Z,3.96
2022-12-09T00:54:23.057Z,3.95
2022-12-09T00:59:26.138Z,3.85
2022-12-09T01:04:28.982Z,3.81
2022-12-09T01:09:34.842Z,3.83
2022-12-09T01:14:37.163Z,4.03
2022-12-09T01:19:41.014Z,4.08
2022-12-09T01:24:43.266Z,4.07
2022-12-09T01:29:45.534Z,4.18
2022-12-09T01:34:47.726Z,4.10
2022-12-09T01:39:50.125Z,4.21
2022-12-09T01:45:20.096Z,4.21
2022-12-09T01:50:23.535Z,4.24
2022-12-09T01:55:27.228Z,4.34
2022-12-09T02:00:29.680Z,4.34
2022-12-09T02:05:34.867Z,4.50
2022-12-09T02:10:58.478Z,4.56
2022-12-09T02:16:06.245Z,4.52
2022-12-09T02:21:13.085Z,4.55
2022-12-09T02:26:28.347Z,4.55
2022-12-09T02:31:55.757Z,4.54
2022-12-09T02:37:19.008Z,4.40
2022-12-09T02:42:30.134Z,4.18
2022-12-09T02:47:41.853Z,4.22
2022-12-09T02:52:49.081Z,4.04
2022-12-09T02:57:56.964Z,4.15
2022-12-09T03:03:03.750Z,4.10
2022-12-09T03:08:16.121Z,4.02
2022-12-09T03:13:23.832Z,3.91
2022-12-09T03:18:30.675Z,3.94
2022-12-09T03:23:36.958Z,3.94
2022-12-09T03:28:45.957Z,3.90
2022-12-09T03:33:53.148Z,3.95
2022-12-09T03:38:57.046Z,3.50
2022-12-09T03:44:09.776Z,3.70
2022-12-09T03:49:12.920Z,3.79
2022-12-09T03:54:22.865Z,3.89
2022-12-09T03:59:31.322Z,3.83
2022-12-09T04:04:40.601Z,3.76
2022-12-09T04:09:43.119Z,3.70
2022-12-09T04:14:45.844Z,3.66
2022-12-09T04:19:48.162Z,3.78
2022-12-09T04:24:50.366Z,3.79
2022-12-09T04:29:52.523Z,3.90
2022-12-09T04:34:54.920Z,3.84
2022-12-09T04:39:57.378Z,3.80
2022-12-09T04:45:00.117Z,3.76
2022-12-09T04:50:02.855Z,3.77
2022-12-09T04:55:05.630Z,3.87
2022-12-09T05:00:09.467Z,3.61
2022-12-09T05:05:13.211Z,3.69
2022-12-09T05:10:16.192Z,3.63
2022-12-09T05:15:18.984Z,3.72
2022-12-09T05:20:21.509Z,3.61
2022-12-09T05:25:24.104Z,3.47
2022-12-09T05:30:26.649Z,3.35
2022-12-09T05:35:28.921Z,3.02
2022-12-09T05:40:31.468Z,3.03
2022-12-09T05:45:33.986Z,3.29
2022-12-09T05:50:36.655Z,3.23
2022-12-09T05:55:42.301Z,3.15
2022-12-09T06:00:44.792Z,3.33
2022-12-09T06:05:47.398Z,3.56
2022-12-09T06:10:50.283Z,3.87
2022-12-09T06:15:52.592Z,4.02
2022-12-09T06:20:55.140Z,4.13
2022-12-09T06:25:57.322Z,4.32
2022-12-09T06:31:00.125Z,4.59
2022-12-09T06:36:03.453Z,5.09
2022-12-09T06:41:11.084Z,5.32
2022-12-09T06:46:23.754Z,5.75
2022-12-09T06:51:26.791Z,5.35
2022-12-09T06:56:29.520Z,5.70
2022-12-09T07:01:32.182Z,5.93
2022-12-09T07:06:40.916Z,6.16
2022-12-09T07:11:46.327Z,6.30
2022-12-09T07:16:49.027Z,6.51
2022-12-09T07:22:06.863Z,6.58
2022-12-09T07:27:19.320Z,6.86
2022-12-09T07:32:22.896Z,7.25
2022-12-09T07:37:25.771Z,7.50
2022-12-09T07:42:28.286Z,7.85
2022-12-09T07:47:31.067Z,8.99
2022-12-09T07:52:33.746Z,10.59
2022-12-09T07:57:38.463Z,12.15
2022-12-09T08:02:41.534Z,13.03
2022-12-09T08:07:44.830Z,13.07
2022-12-09T08:12:47.579Z,12.86
2022-12-09T08:17:50.163Z,12.95
2022-12-09T08:22:52.460Z,12.87
2022-12-09T08:27:55.636Z,12.32
2022-12-09T08:32:58.097Z,11.72
2022-12-09T08:38:00.393Z,11.64
2022-12-09T08:43:08.952Z,11.83
2022-12-09T08:48:11.413Z,12.22
2022-12-09T08:53:14.647Z,12.14
2022-12-09T08:58:17.384Z,12.11
2022-12-09T09:03:20.697Z,11.90
2022-12-09T09:08:23.492Z,12.42
2022-12-09T09:13:26.470Z,12.58
2022-12-09T09:18:29.394Z,12.55
2022-12-09T09:23:32.076Z,11.82
2022-12-09T09:28:34.819Z,12.02
2022-12-09T09:33:38.104Z,12.02
2022-12-09T09:38:40.929Z,12.02
2022-12-09T09:43:45.252Z,12.05
2022-12-09T09:48:49.518Z,12.04
2022-12-09T09:53:53.531Z,12.04
2022-12-09T09:59:37.649Z,12.29
2022-12-09T10:05:00.159Z,12.55
2022-12-09T10:10:17.245Z,12.73
2022-12-09T10:15:28.777Z,12.89
2022-12-09T10:20:33.299Z,13.07
2022-12-09T10:25:50.016Z,13.21
2022-12-09T10:30:55.557Z,13.75
2022-12-09T10:35:59.213Z,14.49
2022-12-09T10:41:36.988Z,15.89
2022-12-09T10:46:39.539Z,16.66
2022-12-09T10:51:50.243Z,17.33
2022-12-09T10:57:15.228Z,17.85
2022-12-09T11:02:23.185Z,17.31
2022-12-09T11:07:28.192Z,17.42
2022-12-09T11:12:41.571Z,17.36
2022-12-09T11:17:57.627Z,17.45
2022-12-09T11:23:14.426Z,17.38
2022-12-09T11:28:17.334Z,17.30
2022-12-09T11:33:28.113Z,17.33
2022-12-09T11:38:30.753Z,16.89
2022-12-09T11:44:03.954Z,17.09
2022-12-09T11:49:16.152Z,17.19
2022-12-09T11:54:28.035Z,17.00
2022-12-09T11:59:38.386Z,16.13
2022-12-09T12:05:07.114Z,15.88
2022-12-09T12:10:25.386Z,15.64
2022-12-09T12:15:48.846Z,15.73
2022-12-09T12:21:08.394Z,15.71
2022-12-09T12:26:26.707Z,15.73
2022-12-09T12:31:56.945Z,15.81
2022-12-09T12:37:20.597Z,16.08
2022-12-09T12:42:40.126Z,16.07
2022-12-09T12:47:54.929Z,16.38
2022-12-09T12:53:07.095Z,16.16
2022-12-09T12:58:47.355Z,16.16
2022-12-09T13:04:22.138Z,16.04
2022-12-09T13:09:37.047Z,16.09
2022-12-09T13:14:56.330Z,16.16
2022-12-09T13:20:02.228Z,16.09
2022-12-09T13:25:27.751Z,16.08
2022-12-09T13:30:40.532Z,16.21
2022-12-09T13:36:02.705Z,16.38
2022-12-09T13:41:26.637Z,16.08
2022-12-09T13:46:29.461Z,16.05
2022-12-09T13:51:45.658Z,15.43
2022-12-09T13:57:23.015Z,15.56
2022-12-09T14:02:52.058Z,15.21
2022-12-09T14:08:02.345Z,15.04
2022-12-09T14:13:32.133Z,14.60
2022-12-09T14:18:35.508Z,14.29
2022-12-09T14:23:38.485Z,14.22
2022-12-09T14:28:52.952Z,14.09
2022-12-09T14:33:55.110Z,13.85
2022-12-09T14:39:24.659Z,13.57
2022-12-09T14:44:31.486Z,13.43
2022-12-09T14:49:37.815Z,13.39
2022-12-09T14:54:48.305Z,13.40
2022-12-09T14:59:53.708Z,13.21
2022-12-09T15:04:57.786Z,13.27
2022-12-09T15:10:19.729Z,13.45
2022-12-09T15:15:24.209Z,13.26
2022-12-09T15:20:39.448Z,12.96
2022-12-09T15:25:54.369Z,12.73
2022-12-09T15:31:04.386Z,12.64
2022-12-09T15:36:12.271Z,12.49
2022-12-09T15:41:35.542Z,12.41
2022-12-09T15:46:42.245Z,12.25
2022-12-09T15:51:47.275Z,11.72
2022-12-09T15:57:02.268Z,11.44
2022-12-09T16:02:06.061Z,11.02
2022-12-09T16:07:10.256Z,10.83
2022-12-09T16:12:32.808Z,10.87
2022-12-09T16:17:53.545Z,10.62
2022-12-09T16:22:55.710Z,10.40
2022-12-09T16:28:01.210Z,10.26
2022-12-09T16:33:04.102Z,10.05
2022-12-09T16:38:09.594Z,10.01
2022-12-09T16:43:18.197Z,9.85
2022-12-09T16:48:22.581Z,9.85
2022-12-09T16:53:30.396Z,9.77
2022-12-09T16:58:35.128Z,9.70
2022-12-09T17:03:43.906Z,9.80
2022-12-09T17:08:46.669Z,9.86
2022-12-09T17:13:50.331Z,10.02
2022-12-09T17:18:53.099Z,9.82
2022-12-09T17:23:55.659Z,9.68
2022-12-09T17:29:01.485Z,9.69
2022-12-09T17:34:04.754Z,9.51
2022-12-09T17:39:07.627Z,9.45
2022-12-09T17:44:10.745Z,9.42
2022-12-09T17:49:13.499Z,9.18
2022-12-09T17:54:16.200Z,8.96
2022-12-09T17:59:20.097Z,9.07
2022-12-09T18:04:22.633Z,8.90
2022-12-09T18:09:25.278Z,8.72
2022-12-09T18:14:27.985Z,8.47
2022-12-09T18:19:30.694Z,8.50
2022-12-09T18:24:33.709Z,9.00
2022-12-09T18:29:37.392Z,9.36
2022-12-09T18:34:39.861Z,9.50
2022-12-09T18:39:42.442Z,9.92
2022-12-09T18:44:44.604Z,9.54
2022-12-09T18:49:47.286Z,9.75
2022-12-09T18:54:49.381Z,9.70
2022-12-09T18:59:53.438Z,9.65
2022-12-09T19:04:55.586Z,9.43
2022-12-09T19:09:58.162Z,9.45
2022-12-09T19:15:00.813Z,9.38
2022-12-09T19:20:04.006Z,9.77
2022-12-09T19:25:06.875Z,9.90
2022-12-09T19:30:09.989Z,9.73
2022-12-09T19:35:13.065Z,10.68
2022-12-09T19:40:15.756Z,11.22
2022-12-09T19:45:18.413Z,12.14
2022-12-09T19:50:22.728Z,12.69
2022-12-09T19:55:25.515Z,12.84
2022-12-09T20:00:28.197Z,13.48
2022-12-09T20:05:30.580Z,13.96
2022-12-09T20:10:33.197Z,14.11
2022-12-09T20:15:37.537Z,14.27
2022-12-09T20:20:44.240Z,14.48
2022-12-09T20:25:49.881Z,14.54
2022-12-09T20:30:52.547Z,14.52
2022-12-09T20:35:55.203Z,14.65
2022-12-09T20:40:57.817Z,14.57
2022-12-09T20:46:05.277Z,14.30
2022-12-09T20:51:13.292Z,14.31
2022-12-09T20:56:17.465Z,14.51
2022-12-09T21:01:25.461Z,14.15
2022-12-09T21:06:32.233Z,14.29
2022-12-09T21:11:35.471Z,14.22
2022-12-09T21:16:41.035Z,14.55
2022-12-09T21:21:48.740Z,14.59
2022-12-09T21:26:53.538Z,14.40
2022-12-09T21:31:56.381Z,14.59
2022-12-09T21:36:59.236Z,14.77
2022-12-09T21:42:01.880Z,14.62
2022-12-09T21:47:04.157Z,14.72
2022-12-09T21:52:07.027Z,14.70
2022-12-09T21:57:09.081Z,14.95
2022-12-09T22:02:12.376Z,15.05
2022-12-09T22:07:14.553Z,15.17
2022-12-09T22:12:17.148Z,15.08
2022-12-09T22:17:19.847Z,14.95
2022-12-09T22:22:22.435Z,14.87
2022-12-09T22:27:25.017Z,14.90
2022-12-09T22:32:34.343Z,14.93
2022-12-09T22:37:43.862Z,14.91
2022-12-09T22:42:47.257Z,14.86
2022-12-09T22:47:49.908Z,15.03
2022-12-09T22:52:52.573Z,15.07
2022-12-09T22:57:55.267Z,15.09
2022-12-09T23:02:57.521Z,15.05
2022-12-09T23:08:00.177Z,15.27
2022-12-09T23:13:02.434Z,15.21
2022-12-09T23:18:05.053Z,15.35
2022-12-09T23:23:07.222Z,15.35
2022-12-09T23:28:11.777Z,15.31
2022-12-09T23:33:14.267Z,15.22
2022-12-09T23:38:16.888Z,15.18
2022-12-09T23:43:20.801Z,15.12
2022-12-09T23:48:22.924Z,15.14
2022-12-09T23:53:25.117Z,14.99
2022-12-09T23:58:27.693Z,15.15
